createdAt,value
2022-10-06T00:04:55.264Z,70.01
2022-10-06T00:09:58.149Z,69.92
2022-10-06T00:15:01.577Z,69.96
2022-10-06T00:20:05.879Z,70.00
2022-10-06T00:25:12.022Z,69.86
2022-10-06T00:30:22.335Z,69.85
2022-10-06T00:35:28.027Z,69.89
2022-10-06T00:40:32.327Z,69.91
2022-10-06T00:45:45.288Z,70.26
2022-10-06T00:50:48.871Z,70.80
2022-10-06T00:55:53.493Z,70.60
2022-10-06T01:00:57.781Z,70.58
2022-10-06T01:06:02.354Z,70.80
2022-10-06T01:11:06.172Z,70.58
2022-10-06T01:16:27.171Z,70.77
2022-10-06T01:21:45.442Z,70.57
2022-10-06T01:26:51.661Z,70.84
2022-10-06T01:31:54.909Z,70.77
2022-10-06T01:36:58.079Z,70.43
2022-10-06T01:42:00.974Z,70.31
2022-10-06T01:47:07.436Z,70.20
2022-10-06T01:52:10.308Z,70.16
2022-10-06T01:57:13.202Z,70.03
2022-10-06T02:02:16.111Z,70.02
2022-10-06T02:07:18.979Z,70.28
2022-10-06T02:12:21.892Z,70.25
2022-10-06T02:17:25.068Z,70.31
2022-10-06T02:22:27.917Z,70.11
2022-10-06T02:27:30.843Z,69.98
2022-10-06T02:32:40.101Z,69.98
2022-10-06T02:37:43.019Z,70.19
2022-10-06T02:42:46.082Z,70.38
2022-10-06T02:47:49.929Z,70.38
2022-10-06T02:52:52.762Z,70.58
2022-10-06T02:57:55.626Z,70.47
2022-10-06T03:02:59.664Z,70.19
2022-10-06T03:08:02.545Z,70.26
2022-10-06T03:13:06.404Z,70.34
2022-10-06T03:18:10.213Z,70.59
2022-10-06T03:23:13.736Z,70.50
2022-10-06T03:28:17.297Z,70.84
2022-10-06T03:33:20.333Z,71.00
2022-10-06T03:38:23.383Z,70.84
2022-10-06T03:43:26.421Z,70.74
2022-10-06T03:48:32.523Z,70.65
2022-10-06T03:53:36.285Z,70.79
2022-10-06T03:58:41.176Z,70.84
2022-10-06T04:03:45.141Z,70.98
2022-10-06T04:08:50.087Z,71.20
2022-10-06T04:14:00.596Z,71.13
2022-10-06T04:19:10.015Z,71.00
2022-10-06T04:24:13.026Z,70.92
2022-10-06T04:29:16.584Z,70.92
2022-10-06T04:34:19.421Z,71.03
2022-10-06T04:39:22.636Z,71.32
2022-10-06T04:44:25.565Z,71.31
2022-10-06T04:49:28.543Z,71.43
2022-10-06T04:54:33.748Z,71.07
2022-10-06T04:59:55.732Z,70.89
2022-10-06T05:04:59.014Z,71.13
2022-10-06T05:10:01.871Z,71.22
2022-10-06T05:15:05.388Z,71.56
2022-10-06T05:20:08.686Z,71.83
2022-10-06T05:25:11.512Z,71.77
2022-10-06T05:30:14.646Z,71.99
2022-10-06T05:35:17.562Z,71.80
2022-10-06T05:40:20.416Z,71.57
2022-10-06T05:45:23.319Z,71.65
2022-10-06T05:50:26.152Z,71.84
2022-10-06T05:55:29.027Z,71.74
2022-10-06T06:00:31.908Z,72.05
2022-10-06T06:05:35.063Z,72.04
2022-10-06T06:10:38.264Z,71.74
2022-10-06T06:15:59.691Z,71.51
2022-10-06T06:21:06.911Z,71.29
2022-10-06T06:26:18.599Z,71.45
2022-10-06T06:31:27.216Z,71.30
2022-10-06T06:36:45.019Z,71.39
2022-10-06T06:41:48.949Z,71.50
2022-10-06T06:46:51.842Z,71.25
2022-10-06T06:51:54.666Z,71.32
2022-10-06T06:56:57.885Z,71.50
2022-10-06T07:02:01.215Z,71.61
2022-10-06T07:07:04.129Z,72.07
2022-10-06T07:12:06.994Z,72.14
2022-10-06T07:17:28.672Z,72.09
2022-10-06T07:22:50.358Z,71.80
2022-10-06T07:27:54.302Z,72.18
2022-10-06T07:32:57.675Z,72.08
2022-10-06T07:38:08.106Z,72.17
2022-10-06T07:43:11.210Z,71.95
2022-10-06T07:48:20.550Z,71.76
2022-10-06T07:53:28.302Z,71.72
2022-10-06T07:58:32.821Z,70.99
2022-10-06T08:03:38.475Z,70.67
2022-10-06T08:08:50.359Z,70.63
2022-10-06T08:39:13.282Z,70.06
2022-10-06T08:44:40.476Z,69.59
2022-10-06T08:49:50.239Z,69.51
2022-10-06T08:55:30.545Z,69.50
2022-10-06T09:00:34.515Z,69.63
2022-10-06T09:05:39.634Z,69.45
2022-10-06T09:11:23.972Z,69.45
2022-10-06T09:16:35.406Z,69.66
2022-10-06T09:21:52.196Z,69.36
2022-10-06T09:26:59.144Z,69.72
2022-10-06T09:32:03.077Z,70.07
2022-10-06T09:37:09.513Z,70.04
2022-10-06T09:42:23.784Z,69.97
2022-10-06T09:47:42.389Z,70.51
2022-10-06T09:53:06.286Z,69.84
2022-10-06T09:58:34.719Z,69.70
2022-10-06T10:04:19.504Z,69.89
2022-10-06T10:09:29.501Z,69.60
2022-10-06T10:14:38.539Z,69.08
2022-10-06T10:19:45.222Z,68.97
2022-10-06T10:25:14.908Z,69.21
2022-10-06T10:30:21.123Z,69.07
2022-10-06T10:35:41.969Z,68.72
2022-10-06T10:40:58.976Z,68.83
2022-10-06T10:46:17.053Z,68.34
2022-10-06T10:51:31.702Z,68.47
2022-10-06T10:56:35.182Z,68.44
2022-10-06T11:01:48.062Z,68.14
2022-10-06T11:07:49.157Z,67.94
2022-10-06T11:13:05.072Z,68.23
2022-10-06T11:18:27.211Z,67.76
2022-10-06T11:23:56.681Z,67.47
2022-10-06T11:29:22.981Z,67.51
2022-10-06T11:34:26.051Z,67.14
2022-10-06T11:39:57.607Z,66.88
2022-10-06T11:45:16.321Z,66.85
2022-10-06T11:50:43.193Z,66.86
2022-10-06T11:55:46.119Z,67.13
2022-10-06T12:00:50.238Z,67.49
2022-10-06T12:05:57.211Z,67.79
2022-10-06T12:33:51.056Z,67.91
2022-10-06T12:39:25.654Z,67.76
2022-10-06T12:44:38.863Z,67.61
2022-10-06T12:50:19.621Z,67.58
2022-10-06T12:55:38.589Z,67.54
2022-10-06T13:00:42.684Z,67.70
2022-10-06T13:06:03.502Z,67.80
2022-10-06T13:11:25.083Z,68.06
2022-10-06T13:16:33.148Z,67.98
2022-10-06T13:21:36.179Z,68.35
2022-10-06T13:26:40.963Z,68.67
2022-10-06T13:31:53.775Z,68.75
2022-10-06T13:36:59.941Z,68.91
2022-10-06T13:42:10.296Z,69.06
2022-10-06T13:47:24.736Z,69.44
2022-10-06T13:52:40.744Z,69.64
2022-10-06T13:57:56.980Z,69.56
2022-10-06T14:03:06.195Z,69.05
2022-10-06T14:08:11.994Z,69.29
2022-10-06T14:13:39.472Z,69.45
2022-10-06T14:24:04.730Z,71.13
2022-10-06T14:29:13.672Z,71.55
2022-10-06T14:34:20.007Z,71.71
2022-10-06T14:39:23.018Z,71.59
2022-10-06T14:44:26.044Z,71.93
2022-10-06T14:49:29.100Z,71.99
2022-10-06T14:54:34.525Z,72.42
2022-10-06T14:59:37.513Z,72.55
2022-10-06T15:04:40.435Z,72.55
2022-10-06T15:09:43.421Z,72.41
2022-10-06T15:14:46.453Z,72.00
2022-10-06T15:19:49.535Z,72.23
2022-10-06T15:24:52.590Z,72.21
2022-10-06T15:29:57.592Z,72.30
2022-10-06T15:35:00.565Z,72.15
2022-10-06T15:40:05.748Z,72.31
2022-10-06T15:45:09.620Z,72.54
2022-10-06T15:50:17.854Z,72.35
2022-10-06T15:55:21.867Z,72.44
2022-10-06T16:00:24.855Z,71.61
2022-10-06T16:05:47.370Z,71.40
2022-10-06T16:10:50.677Z,70.85
2022-10-06T16:15:57.593Z,70.51
2022-10-06T16:21:00.725Z,69.27
2022-10-06T16:26:04.207Z,68.35
2022-10-06T16:31:07.275Z,67.15
2022-10-06T16:36:10.418Z,66.68
2022-10-06T16:41:13.400Z,66.97
2022-10-06T16:46:25.033Z,67.34
2022-10-06T16:51:34.498Z,67.41
2022-10-06T16:56:44.498Z,67.85
2022-10-06T17:01:49.387Z,68.48
2022-10-06T17:06:57.309Z,68.94
2022-10-06T17:12:03.433Z,68.97
2022-10-06T17:17:06.498Z,69.15
2022-10-06T17:22:09.501Z,69.13
2022-10-06T17:27:12.533Z,69.32
2022-10-06T17:32:15.680Z,69.49
2022-10-06T17:37:18.749Z,69.64
2022-10-06T17:42:21.740Z,69.57
2022-10-06T17:47:25.969Z,69.93
2022-10-06T17:52:29.277Z,69.88
2022-10-06T17:57:32.182Z,69.74
2022-10-06T18:02:35.210Z,70.02
2022-10-06T18:07:38.603Z,70.31
2022-10-06T18:12:41.722Z,70.69
2022-10-06T18:17:45.571Z,71.01
2022-10-06T18:22:48.774Z,70.93
2022-10-06T18:27:52.425Z,70.80
2022-10-06T18:38:18.729Z,70.27
2022-10-06T18:43:21.960Z,70.09
2022-10-06T18:49:14.840Z,70.03
2022-10-06T18:54:23.567Z,70.27
2022-10-06T18:59:31.237Z,70.37
2022-10-06T19:04:36.306Z,70.19
2022-10-06T19:09:45.235Z,69.81
2022-10-06T19:14:50.591Z,70.15
2022-10-06T19:19:55.553Z,70.22
2022-10-06T19:24:58.810Z,70.15
2022-10-06T19:30:02.001Z,70.05
2022-10-06T19:35:09.922Z,70.06
2022-10-06T19:40:14.068Z,69.49
2022-10-06T19:45:20.874Z,69.71
2022-10-06T19:50:24.290Z,69.55
2022-10-06T19:55:28.866Z,69.87
2022-10-06T20:00:32.162Z,69.95
2022-10-06T20:05:38.564Z,69.87
2022-10-06T20:10:41.768Z,69.56
2022-10-06T20:15:44.865Z,69.76
2022-10-06T20:20:58.945Z,69.96
2022-10-06T20:26:18.686Z,70.19
2022-10-06T20:31:31.615Z,69.63
2022-10-06T20:36:37.278Z,69.56
2022-10-06T20:41:43.503Z,70.14
2022-10-06T20:46:48.298Z,69.79
2022-10-06T20:51:52.522Z,70.12
2022-10-06T20:56:56.285Z,69.95
2022-10-06T21:02:00.478Z,70.14
2022-10-06T21:07:06.511Z,69.81
2022-10-06T21:12:09.728Z,70.03
2022-10-06T21:17:12.961Z,69.99
2022-10-06T21:22:16.174Z,69.74
2022-10-06T21:27:21.318Z,70.03
2022-10-06T21:32:25.146Z,69.75
2022-10-06T21:37:28.461Z,69.71
2022-10-06T21:42:31.821Z,69.61
2022-10-06T21:47:35.080Z,68.94
2022-10-06T21:52:38.370Z,69.05
2022-10-06T21:57:41.791Z,69.18
2022-10-06T22:02:45.384Z,69.03
2022-10-06T22:07:48.626Z,69.24
2022-10-06T22:12:51.759Z,69.47
2022-10-06T22:17:55.042Z,69.60
2022-10-06T22:23:02.630Z,69.26
2022-10-06T22:28:08.151Z,68.77
2022-10-06T22:33:11.421Z,69.15
2022-10-06T22:38:14.659Z,68.76
2022-10-06T22:43:17.941Z,68.80
2022-10-06T22:48:21.158Z,69.08
2022-10-06T22:53:27.023Z,69.22
2022-10-06T22:58:30.611Z,69.13
2022-10-06T23:03:33.784Z,68.94
2022-10-06T23:08:37.856Z,68.68
2022-10-06T23:13:43.542Z,69.31
2022-10-06T23:18:48.326Z,69.29
2022-10-06T23:23:59.278Z,69.31
2022-10-06T23:29:04.263Z,68.72
2022-10-06T23:34:07.677Z,68.75
2022-10-06T23:39:11.090Z,68.77
2022-10-06T23:44:14.349Z,69.03
2022-10-06T23:49:17.635Z,68.74
2022-10-06T23:54:21.003Z,68.48
2022-10-06T23:59:25.102Z,68.07
